Wetterdaten: Woche 23.09.19 - 29.09.19 (KW39)
Datum Zeit Temp. Aussen Temp. o. S. +5cm Feuchte Auss Luftdruck Regen Sonnenschein Regendauer Solar Windben Empfang
23.09.2019 00:00 17,4 C 15,5 C 15,5 C 94 % 1010,4 hPa 1,6 l/m 0,00 h 0,93 h 0 W/m 8,9 km/h (2 Bft) 95,83 %
23.09.2019 01:00 16,5 C 15,0 C 15,0 C 96 % 1011,0 hPa 3,2 l/m 0,00 h 1,00 h 0 W/m 3,2 km/h (1 Bft) 97,44 %
23.09.2019 02:00 16,3 C 15,0 C 15,0 C 96 % 1011,5 hPa 0,8 l/m 0,00 h 0,77 h 0 W/m 1,5 km/h (1 Bft) 99,07 %
23.09.2019 03:00 16,1 C 14,9 C 14,5 C 97 % 1011,8 hPa 0,2 l/m 0,00 h 0,70 h 0 W/m 1,4 km/h (1 Bft) 96,80 %
23.09.2019 04:00 15,8 C 14,4 C 14,4 C 97 % 1012,5 hPa 0,2 l/m 0,00 h 0,90 h 0 W/m 4,1 km/h (1 Bft) 96,79 %
23.09.2019 05:00 15,5 C 14,1 C 13,9 C 97 % 1012,5 hPa 1,0 l/m 0,00 h 1,00 h 0 W/m 1,4 km/h (1 Bft) 99,50 %
23.09.2019 06:00 15,2 C 13,9 C 13,9 C 97 % 1012,5 hPa 1,2 l/m 0,00 h 1,00 h 0 W/m 2,1 km/h (1 Bft) 96,61 %
23.09.2019 07:00 15,0 C 13,9 C 13,6 C 97 % 1013,0 hPa 0,8 l/m 0,00 h 0,80 h 17 W/m 2,9 km/h (1 Bft) 96,65 %
23.09.2019 08:00 14,8 C 13,9 C 13,5 C 98 % 1013,5 hPa 0,0 l/m 0,00 h 0,00 h 37 W/m 3,6 km/h (1 Bft) 99,15 %
23.09.2019 09:00 15,0 C 14,5 C 13,9 C 98 % 1014,2 hPa 0,0 l/m 0,00 h 0,00 h 59 W/m 4,3 km/h (1 Bft) 96,08 %
23.09.2019 10:00 15,4 C 15,0 C 14,3 C 98 % 1014,6 hPa 0,0 l/m 0,00 h 0,00 h 74 W/m 5,6 km/h (1 Bft) 97,94 %
23.09.2019 11:00 15,8 C 15,6 C 14,9 C 98 % 1014,8 hPa 0,0 l/m 0,00 h 0,00 h 89 W/m 6,6 km/h (2 Bft) 98,01 %
23.09.2019 12:00 16,7 C 19,7 C 16,2 C 97 % 1014,8 hPa 0,0 l/m 0,53 h 0,00 h 341 W/m 8,3 km/h (2 Bft) 96,54 %
23.09.2019 13:00 18,1 C 19,6 C 16,6 C 89 % 1014,8 hPa 0,0 l/m 0,17 h 0,00 h 242 W/m 5,5 km/h (1 Bft) 97,36 %
23.09.2019 14:00 19,3 C 21,5 C 18,4 C 80 % 1014,9 hPa 0,0 l/m 0,40 h 0,00 h 341 W/m 10,9 km/h (2 Bft) 97,97 %
23.09.2019 15:00 20,3 C 23,7 C 18,9 C 73 % 1014,9 hPa 0,0 l/m 0,93 h 0,00 h 494 W/m 10,9 km/h (2 Bft) 98,65 %
23.09.2019 16:00 21,1 C 22,7 C 19,1 C 69 % 1015,0 hPa 0,0 l/m 0,57 h 0,00 h 354 W/m 10,5 km/h (2 Bft) 94,59 %
23.09.2019 17:00 19,7 C 19,4 C 18,1 C 72 % 1015,1 hPa 0,0 l/m 0,20 h 0,00 h 139 W/m 8,9 km/h (2 Bft) 99,64 %
23.09.2019 18:00 19,1 C 18,2 C 17,5 C 75 % 1015,3 hPa 0,0 l/m 0,00 h 0,00 h 48 W/m 9,2 km/h (2 Bft) 98,71 %
23.09.2019 19:00 18,2 C 17,0 C 16,5 C 76 % 1015,5 hPa 0,0 l/m 0,00 h 0,00 h 11 W/m 5,7 km/h (1 Bft) 94,24 %
23.09.2019 20:00 17,5 C 16,3 C 15,7 C 78 % 1015,7 hPa 0,0 l/m 0,00 h 0,00 h 0 W/m 0,0 km/h (0 Bft) 99,36 %
23.09.2019 21:00 17,0 C 15,8 C 15,2 C 80 % 1015,8 hPa 0,0 l/m 0,00 h 0,00 h 0 W/m 0,0 km/h (0 Bft) 98,29 %
23.09.2019 22:00 16,5 C 15,2 C 15,0 C 83 % 1015,8 hPa 0,0 l/m 0,00 h 0,00 h 0 W/m 1,1 km/h (0 Bft) 96,16 %
23.09.2019 23:00 16,0 C 14,8 C 14,4 C 85 % 1015,8 hPa 0,0 l/m 0,00 h 0,00 h 0 W/m 2,9 km/h (1 Bft) 98,29 %
24.09.2019 00:00 15,4 C 14,0 C 13,5 C 86 % 1015,7 hPa 0,0 l/m 0,00 h 0,00 h 0 W/m 0,3 km/h (0 Bft) 96,58 %
24.09.2019 01:00 14,8 C 13,3 C 12,9 C 87 % 1015,4 hPa 0,0 l/m 0,00 h 0,00 h 0 W/m 0,0 km/h (0 Bft) 97,73 %
24.09.2019 02:00 14,1 C 12,9 C 12,8 C 89 % 1015,1 hPa 0,0 l/m 0,00 h 0,00 h 0 W/m 3,8 km/h (1 Bft) 98,08 %
24.09.2019 03:00 13,9 C 13,0 C 12,8 C 91 % 1014,6 hPa 0,0 l/m 0,00 h 0,00 h 0 W/m 7,2 km/h (2 Bft) 94,73 %
24.09.2019 04:00 13,8 C 12,9 C 12,8 C 92 % 1013,9 hPa 0,0 l/m 0,00 h 0,00 h 0 W/m 12,7 km/h (3 Bft) 99,04 %
24.09.2019 05:00 13,5 C 12,5 C 12,2 C 92 % 1013,3 hPa 0,0 l/m 0,00 h 0,00 h 0 W/m 11,0 km/h (2 Bft) 98,71 %
24.09.2019 06:00 13,0 C 12,2 C 11,7 C 93 % 1013,1 hPa 0,0 l/m 0,00 h 0,00 h 0 W/m 12,4 km/h (3 Bft) 93,91 %
24.09.2019 07:00 12,8 C 12,3 C 11,9 C 94 % 1012,9 hPa 0,0 l/m 0,00 h 0,00 h 16 W/m 14,4 km/h (3 Bft) 99,15 %
24.09.2019 08:00 13,2 C 13,3 C 12,7 C 94 % 1012,1 hPa 0,0 l/m 0,07 h 0,00 h 63 W/m 15,5 km/h (3 Bft) 98,72 %
24.09.2019 09:00 14,1 C 14,4 C 13,7 C 91 % 1011,7 hPa 0,0 l/m 0,00 h 0,00 h 117 W/m 17,6 km/h (3 Bft) 95,16 %
24.09.2019 10:00 15,5 C 17,2 C 16,1 C 87 % 1011,3 hPa 0,0 l/m 0,87 h 0,00 h 260 W/m 21,4 km/h (4 Bft) 98,50 %
24.09.2019 11:00 17,1 C 18,3 C 16,9 C 81 % 1010,6 hPa 0,0 l/m 0,60 h 0,00 h 248 W/m 21,9 km/h (4 Bft) 98,29 %
24.09.2019 12:00 18,5 C 20,0 C 18,5 C 77 % 1009,9 hPa 0,0 l/m 0,50 h 0,00 h 310 W/m 21,9 km/h (4 Bft) 96,65 %
24.09.2019 13:00 19,4 C 19,4 C 18,6 C 73 % 1009,5 hPa 0,0 l/m 0,00 h 0,00 h 149 W/m 19,6 km/h (3 Bft) 97,16 %
24.09.2019 14:00 19,6 C 19,5 C 18,7 C 71 % 1008,9 hPa 0,0 l/m 0,00 h 0,00 h 157 W/m 21,3 km/h (4 Bft) 98,58 %
24.09.2019 15:00 19,0 C 18,3 C 17,7 C 72 % 1008,6 hPa 0,0 l/m 0,00 h 0,03 h 83 W/m 21,3 km/h (4 Bft) 97,23 %
24.09.2019 16:00 18,3 C 17,8 C 17,2 C 74 % 1007,7 hPa 0,0 l/m 0,00 h 0,00 h 97 W/m 21,2 km/h (4 Bft) 95,07 %
24.09.2019 17:00 17,9 C 16,4 C 15,9 C 75 % 1007,2 hPa 0,2 l/m 0,00 h 0,43 h 62 W/m 21,8 km/h (4 Bft) 99,43 %
24.09.2019 18:00 16,1 C 13,1 C 12,6 C 84 % 1007,0 hPa 0,4 l/m 0,00 h 0,87 h 12 W/m 16,5 km/h (3 Bft) 98,59 %
24.09.2019 19:00 15,2 C 12,8 C 12,4 C 87 % 1007,1 hPa 0,0 l/m 0,00 h 0,62 h 4 W/m 10,0 km/h (2 Bft) 94,62 %
24.09.2019 20:00 14,8 C 12,9 C 12,2 C 89 % 1006,7 hPa 0,2 l/m 0,00 h 0,40 h 0 W/m 14,3 km/h (3 Bft) 98,92 %
24.09.2019 21:00 14,5 C 12,7 C 12,2 C 91 % 1006,4 hPa 0,0 l/m 0,00 h 0,73 h 0 W/m 15,0 km/h (3 Bft) 97,37 %
24.09.2019 22:00 13,9 C 12,2 C 12,1 C 94 % 1006,0 hPa 0,8 l/m 0,00 h 0,47 h 0 W/m 12,0 km/h (2 Bft) 97,65 %
24.09.2019 23:00 13,7 C 12,3 C 12,2 C 96 % 1005,6 hPa 0,0 l/m 0,00 h 0,03 h 0 W/m 8,5 km/h (2 Bft) 96,94 %
25.09.2019 00:00 13,6 C 12,7 C 12,2 C 97 % 1005,3 hPa 0,0 l/m 0,00 h 0,00 h 0 W/m 5,0 km/h (1 Bft) 97,07 %
25.09.2019 01:00 13,7 C 12,8 C 12,2 C 97 % 1005,2 hPa 0,0 l/m 0,00 h 0,13 h 0 W/m 2,9 km/h (1 Bft) 98,08 %
25.09.2019 02:00 13,8 C 12,8 C 12,4 C 97 % 1005,4 hPa 0,0 l/m 0,00 h 0,00 h 0 W/m 3,2 km/h (1 Bft) 97,65 %
25.09.2019 03:00 14,0 C 13,0 C 12,8 C 98 % 1005,7 hPa 0,0 l/m 0,00 h 0,00 h 0 W/m 2,0 km/h (1 Bft) 95,51 %
25.09.2019 04:00 13,9 C 12,8 C 12,6 C 98 % 1005,9 hPa 0,0 l/m 0,00 h 0,33 h 0 W/m 1,8 km/h (1 Bft) 99,15 %
25.09.2019 05:00 13,7 C 12,8 C 12,2 C 98 % 1006,0 hPa 0,2 l/m 0,00 h 0,00 h 0 W/m 5,0 km/h (1 Bft) 98,22 %
25.09.2019 06:00 13,7 C 12,8 C 12,2 C 98 % 1006,2 hPa 0,0 l/m 0,00 h 0,03 h 0 W/m 5,9 km/h (2 Bft) 94,16 %
25.09.2019 07:00 13,7 C 12,8 C 12,2 C 98 % 1006,5 hPa 1,0 l/m 0,00 h 0,20 h 8 W/m 10,4 km/h (2 Bft) 99,29 %
25.09.2019 08:00 13,8 C 13,2 C 12,7 C 98 % 1006,4 hPa 0,0 l/m 0,00 h 0,03 h 32 W/m 8,2 km/h (2 Bft) 98,08 %
25.09.2019 09:00 14,2 C 14,1 C 13,1 C 98 % 1006,5 hPa 0,0 l/m 0,00 h 0,00 h 79 W/m 12,8 km/h (3 Bft) 95,30 %
25.09.2019 10:00 15,0 C 16,7 C 14,2 C 96 % 1006,7 hPa 0,0 l/m 0,23 h 0,00 h 200 W/m 15,2 km/h (3 Bft) 99,22 %
25.09.2019 11:00 16,6 C 17,7 C 15,5 C 87 % 1006,9 hPa 0,0 l/m 0,47 h 0,00 h 252 W/m 19,9 km/h (4 Bft) 97,93 %
25.09.2019 12:00 17,3 C 18,0 C 17,0 C 80 % 1006,8 hPa 0,0 l/m 0,37 h 0,00 h 251 W/m 22,5 km/h (4 Bft) 96,02 %
25.09.2019 13:00 18,0 C 19,6 C 18,0 C 76 % 1006,5 hPa 0,0 l/m 0,53 h 0,00 h 349 W/m 17,3 km/h (3 Bft) 97,65 %
25.09.2019 14:00 19,0 C 20,5 C 18,7 C 72 % 1006,1 hPa 0,0 l/m 0,57 h 0,00 h 333 W/m 21,9 km/h (4 Bft) 98,79 %
25.09.2019 15:00 18,6 C 18,2 C 17,5 C 72 % 1006,0 hPa 0,0 l/m 0,10 h 0,00 h 163 W/m 17,0 km/h (3 Bft) 96,86 %
25.09.2019 16:00 17,8 C 17,2 C 16,7 C 75 % 1005,8 hPa 0,0 l/m 0,00 h 0,00 h 82 W/m 14,7 km/h (3 Bft) 96,01 %
25.09.2019 17:00 17,6 C 16,7 C 16,4 C 78 % 1005,8 hPa 0,0 l/m 0,00 h 0,00 h 32 W/m 12,2 km/h (3 Bft) 99,57 %
25.09.2019 18:00 17,2 C 16,5 C 16,0 C 81 % 1005,9 hPa 0,0 l/m 0,03 h 0,00 h 39 W/m 8,2 km/h (2 Bft) 97,13 %
25.09.2019 19:00 17,0 C 16,1 C 15,6 C 82 % 1006,0 hPa 0,0 l/m 0,00 h 0,00 h 6 W/m 7,1 km/h (2 Bft) 95,37 %
25.09.2019 20:00 16,8 C 16,1 C 15,6 C 84 % 1006,3 hPa 0,0 l/m 0,00 h 0,00 h 0 W/m 9,1 km/h (2 Bft) 99,79 %
25.09.2019 21:00 16,5 C 14,4 C 14,0 C 88 % 1006,5 hPa 0,2 l/m 0,00 h 0,27 h 0 W/m 10,5 km/h (2 Bft) 97,30 %
25.09.2019 22:00 16,0 C 14,4 C 13,9 C 91 % 1006,7 hPa 0,0 l/m 0,00 h 0,07 h 0 W/m 8,6 km/h (2 Bft) 95,16 %
25.09.2019 23:00 15,9 C 14,4 C 13,9 C 91 % 1006,9 hPa 0,0 l/m 0,00 h 0,00 h 0 W/m 10,0 km/h (2 Bft) 99,07 %
26.09.2019 00:00 15,9 C 15,1 C 14,5 C 91 % 1007,0 hPa 0,0 l/m 0,00 h 0,00 h 0 W/m 11,1 km/h (2 Bft) 96,71 %
26.09.2019 01:00 15,9 C 15,0 C 14,8 C 90 % 1007,1 hPa 0,0 l/m 0,00 h 0,00 h 0 W/m 10,6 km/h (2 Bft) 97,44 %
26.09.2019 02:00 15,7 C 14,9 C 14,4 C 89 % 1007,4 hPa 0,0 l/m 0,00 h 0,00 h 0 W/m 9,6 km/h (2 Bft) 98,13 %
26.09.2019 03:00 15,6 C 15,0 C 14,4 C 90 % 1007,4 hPa 0,0 l/m 0,00 h 0,00 h 0 W/m 10,2 km/h (2 Bft) 96,51 %
26.09.2019 04:00 15,8 C 15,0 C 14,8 C 90 % 1007,6 hPa 0,0 l/m 0,00 h 0,00 h 0 W/m 11,7 km/h (2 Bft) 98,15 %
26.09.2019 05:00 15,7 C 14,8 C 14,3 C 89 % 1007,8 hPa 0,0 l/m 0,00 h 0,00 h 0 W/m 9,7 km/h (2 Bft) 96,46 %
26.09.2019 06:00 15,2 C 14,2 C 13,9 C 89 % 1008,1 hPa 0,0 l/m 0,00 h 0,00 h 0 W/m 8,3 km/h (2 Bft) 97,52 %
26.09.2019 07:00 14,8 C 13,9 C 13,5 C 90 % 1008,1 hPa 0,0 l/m 0,00 h 0,00 h 11 W/m 10,2 km/h (2 Bft) 98,08 %
26.09.2019 08:00 14,8 C 13,9 C 13,5 C 93 % 1008,4 hPa 0,0 l/m 0,00 h 0,00 h 21 W/m 10,9 km/h (2 Bft) 96,65 %
26.09.2019 09:00 15,0 C 15,0 C 14,4 C 94 % 1008,6 hPa 0,0 l/m 0,00 h 0,00 h 75 W/m 11,9 km/h (2 Bft) 98,21 %
26.09.2019 10:00 15,7 C 16,0 C 15,3 C 94 % 1009,1 hPa 0,0 l/m 0,00 h 0,00 h 92 W/m 11,8 km/h (2 Bft) 97,03 %
26.09.2019 11:00 16,6 C 16,5 C 15,8 C 92 % 1009,3 hPa 0,6 l/m 0,00 h 0,37 h 117 W/m 13,7 km/h (3 Bft) 97,72 %
26.09.2019 12:00 16,9 C 15,4 C 14,9 C 93 % 1010,0 hPa 0,6 l/m 0,00 h 0,83 h 92 W/m 10,0 km/h (2 Bft) 98,04 %
26.09.2019 13:00 16,8 C 15,6 C 15,0 C 95 % 1010,9 hPa 1,0 l/m 0,00 h 0,70 h 59 W/m 10,7 km/h (2 Bft) 95,96 %
26.09.2019 14:00 16,6 C 15,6 C 15,0 C 97 % 1011,3 hPa 0,8 l/m 0,00 h 0,37 h 67 W/m 13,3 km/h (3 Bft) 98,90 %
26.09.2019 15:00 16,8 C 16,3 C 15,6 C 98 % 1012,0 hPa 0,0 l/m 0,00 h 0,00 h 104 W/m 11,1 km/h (2 Bft) 97,06 %
26.09.2019 16:00 17,4 C 16,9 C 16,1 C 99 % 1009,3 hPa 0,0 l/m 0,00 h 0,00 h 62 W/m 10,7 km/h (2 Bft) 96,51 %
26.09.2019 17:00 17,8 C 17,3 C 16,1 C 99 % 1008,8 hPa 0,0 l/m 0,00 h 0,00 h 72 W/m 12,4 km/h (3 Bft) 99,00 %
26.09.2019 18:00 18,2 C 17,6 C 16,1 C 97 % 1008,6 hPa 0,0 l/m 0,00 h 0,00 h 16 W/m 8,7 km/h (2 Bft) 96,17 %
26.09.2019 19:00 18,2 C 17,1 C 16,1 C 95 % 1008,4 hPa 0,0 l/m 0,00 h 0,27 h 0 W/m 13,3 km/h (3 Bft) 97,72 %
26.09.2019 20:00 18,1 C 17,2 C 16,1 C 93 % 1008,4 hPa 0,0 l/m 0,00 h 0,00 h 0 W/m 15,8 km/h (3 Bft) 98,57 %
26.09.2019 21:00 18,1 C 16,8 C 16,1 C 91 % 1008,6 hPa 0,0 l/m 0,00 h 0,40 h 0 W/m 22,4 km/h (4 Bft) 95,81 %
26.09.2019 22:00 17,6 C 15,8 C 16,1 C 93 % 1008,8 hPa 0,0 l/m 0,00 h 0,13 h 0 W/m 24,4 km/h (4 Bft) 98,28 %
26.09.2019 23:00 17,4 C 16,3 C 16,1 C 93 % 1009,0 hPa 0,0 l/m 0,00 h 0,13 h 0 W/m 23,8 km/h (4 Bft) 97,40 %
27.09.2019 00:00 15,2 C 13,0 C 16,1 C 93 % 1009,8 hPa 0,4 l/m 0,00 h 0,47 h 0 W/m 14,2 km/h (3 Bft) 97,68 %
27.09.2019 01:00 14,1 C 12,4 C 16,1 C 96 % 1010,0 hPa 0,8 l/m 0,00 h 0,47 h 0 W/m 11,8 km/h (2 Bft) 97,72 %
27.09.2019 02:00 13,7 C 12,3 C 16,1 C 97 % 1010,0 hPa 0,2 l/m 0,00 h 0,27 h 0 W/m 13,7 km/h (3 Bft) 96,45 %
27.09.2019 03:00 13,8 C 12,8 C 16,1 C 98 % 1009,7 hPa 0,0 l/m 0,00 h 0,00 h 0 W/m 11,4 km/h (2 Bft) 99,57 %
27.09.2019 04:00 13,7 C 12,8 C 16,1 C 98 % 1009,5 hPa 0,0 l/m 0,00 h 0,10 h 0 W/m 13,4 km/h (3 Bft) 96,86 %
27.09.2019 05:00 13,7 C 12,8 C 16,1 C 99 % 1009,4 hPa 0,0 l/m 0,00 h 0,07 h 0 W/m 6,8 km/h (2 Bft) 96,80 %
27.09.2019 06:00 13,5 C 12,4 C 16,1 C 99 % 1009,2 hPa 0,0 l/m 0,00 h 0,00 h 0 W/m 6,1 km/h (2 Bft) 99,63 %
27.09.2019 07:00 13,2 C 12,2 C 16,1 C 99 % 1009,1 hPa 0,0 l/m 0,00 h 0,00 h 6 W/m 3,7 km/h (1 Bft) 96,37 %
27.09.2019 08:00 13,2 C 12,2 C 16,1 C 99 % 1009,3 hPa 0,0 l/m 0,00 h 0,00 h 26 W/m 4,8 km/h (1 Bft) 95,67 %
27.09.2019 09:00 13,5 C 13,8 C 16,1 C 99 % 1009,6 hPa 0,0 l/m 0,13 h 0,00 h 115 W/m 16,9 km/h (3 Bft) 99,57 %
27.09.2019 10:00 15,1 C 16,5 C 16,1 C 94 % 1009,7 hPa 0,2 l/m 0,37 h 0,00 h 205 W/m 22,1 km/h (4 Bft) 96,44 %
27.09.2019 11:00 16,4 C 18,2 C 16,1 C 87 % 1009,5 hPa 0,0 l/m 0,43 h 0,00 h 278 W/m 21,0 km/h (4 Bft) 96,64 %
27.09.2019 12:00 17,9 C 20,0 C 16,1 C 81 % 1009,4 hPa 0,0 l/m 0,27 h 0,00 h 322 W/m 17,9 km/h (3 Bft) 98,13 %
27.09.2019 13:00 19,3 C 23,2 C 16,1 C 74 % 1009,2 hPa 0,0 l/m 0,83 h 0,00 h 618 W/m 21,0 km/h (4 Bft) 97,37 %
27.09.2019 14:00 19,4 C 20,8 C 16,1 C 72 % 1009,0 hPa 0,0 l/m 0,30 h 0,00 h 285 W/m 14,9 km/h (3 Bft) 99,00 %
27.09.2019 15:00 20,4 C 23,3 C 16,1 C 66 % 1008,9 hPa 0,0 l/m 0,83 h 0,00 h 500 W/m 19,9 km/h (4 Bft) 96,20 %
27.09.2019 16:00 20,5 C 23,0 C 16,1 C 63 % 1008,6 hPa 0,0 l/m 0,93 h 0,00 h 456 W/m 25,3 km/h (4 Bft) 97,44 %
27.09.2019 17:00 20,4 C 20,8 C 16,1 C 62 % 1008,3 hPa 0,0 l/m 0,63 h 0,00 h 215 W/m 24,0 km/h (4 Bft) 98,17 %
27.09.2019 18:00 19,3 C 18,3 C 16,1 C 66 % 1008,5 hPa 0,0 l/m 0,07 h 0,00 h 42 W/m 20,5 km/h (4 Bft) 98,23 %
27.09.2019 19:00 18,1 C 16,8 C 16,1 C 72 % 1008,9 hPa 0,0 l/m 0,00 h 0,00 h 10 W/m 20,3 km/h (4 Bft) 97,15 %
27.09.2019 20:00 16,9 C 15,5 C 16,1 C 80 % 1009,3 hPa 0,0 l/m 0,00 h 0,07 h 0 W/m 18,4 km/h (3 Bft) 96,87 %
27.09.2019 21:00 16,1 C 14,8 C 16,1 C 85 % 1009,6 hPa 0,0 l/m 0,00 h 0,37 h 0 W/m 20,6 km/h (4 Bft) 97,44 %
27.09.2019 22:00 15,6 C 14,3 C 16,1 C 86 % 1009,4 hPa 0,0 l/m 0,00 h 0,00 h 0 W/m 13,1 km/h (3 Bft) 99,07 %
27.09.2019 23:00 14,8 C 13,7 C 16,1 C 89 % 1009,4 hPa 0,0 l/m 0,00 h 0,00 h 0 W/m 14,0 km/h (3 Bft) 95,58 %
28.09.2019 00:00 15,0 C 14,7 C 16,1 C 88 % 1009,5 hPa 0,0 l/m 0,00 h 0,00 h 0 W/m 20,7 km/h (4 Bft) 97,41 %
28.09.2019 01:00 15,4 C 14,5 C 16,1 C 86 % 1009,6 hPa 0,0 l/m 0,00 h 0,00 h 0 W/m 23,9 km/h (4 Bft) 98,86 %
28.09.2019 02:00 15,2 C 14,2 C 16,1 C 86 % 1010,1 hPa 0,0 l/m 0,00 h 0,00 h 0 W/m 22,4 km/h (4 Bft) 97,01 %
28.09.2019 03:00 14,8 C 14,0 C 16,1 C 87 % 1010,2 hPa 0,0 l/m 0,00 h 0,00 h 0 W/m 20,7 km/h (4 Bft) 96,51 %
28.09.2019 04:00 14,6 C 13,9 C 16,1 C 88 % 1010,1 hPa 0,0 l/m 0,00 h 0,00 h 0 W/m 23,4 km/h (4 Bft) 98,58 %
28.09.2019 05:00 14,7 C 13,9 C 16,1 C 88 % 1010,4 hPa 0,0 l/m 0,00 h 0,23 h 0 W/m 26,2 km/h (4 Bft) 96,76 %
28.09.2019 06:00 14,2 C 12,2 C 16,1 C 92 % 1010,6 hPa 0,4 l/m 0,00 h 0,60 h 0 W/m 21,8 km/h (4 Bft) 95,58 %
28.09.2019 07:00 13,7 C 12,6 C 17,0 C 94 % 1010,8 hPa 0,0 l/m 0,00 h 0,00 h 11 W/m 23,8 km/h (4 Bft) 97,44 %
28.09.2019 08:00 14,0 C 13,2 C 18,3 C 93 % 1011,1 hPa 0,0 l/m 0,00 h 0,00 h 35 W/m 24,2 km/h (4 Bft) 99,64 %
28.09.2019 09:00 14,3 C 14,4 C 18,3 C 92 % 1011,4 hPa 0,0 l/m 0,07 h 0,00 h 100 W/m 23,1 km/h (4 Bft) 94,00 %
28.09.2019 10:00 15,3 C 16,1 C 18,3 C 88 % 1012,0 hPa 0,0 l/m 0,30 h 0,00 h 186 W/m 25,2 km/h (4 Bft) 97,59 %
28.09.2019 11:00 16,1 C 16,6 C 18,3 C 84 % 1012,2 hPa 0,0 l/m 0,17 h 0,03 h 185 W/m 25,2 km/h (4 Bft) 99,57 %
28.09.2019 12:00 17,4 C 19,4 C 18,3 C 78 % 1012,3 hPa 0,0 l/m 0,63 h 0,00 h 418 W/m 26,5 km/h (4 Bft) 96,10 %
28.09.2019 13:00 17,2 C 16,2 C 18,3 C 80 % 1012,6 hPa 0,4 l/m 0,10 h 0,30 h 141 W/m 26,5 km/h (4 Bft) 96,59 %
28.09.2019 14:00 16,5 C 15,4 C 18,3 C 85 % 1012,2 hPa 0,0 l/m 0,10 h 0,17 h 187 W/m 27,6 km/h (4 Bft) 99,01 %
28.09.2019 15:00 16,8 C 15,3 C 18,3 C 85 % 1012,0 hPa 0,8 l/m 0,27 h 0,47 h 234 W/m 26,2 km/h (4 Bft) 97,30 %
28.09.2019 16:00 16,8 C 16,7 C 18,3 C 85 % 1012,0 hPa 0,0 l/m 0,20 h 0,00 h 197 W/m 26,1 km/h (4 Bft) 96,58 %
28.09.2019 17:00 16,1 C 14,2 C 18,3 C 89 % 1012,0 hPa 1,2 l/m 0,00 h 0,50 h 57 W/m 20,5 km/h (4 Bft) 97,59 %
28.09.2019 18:00 14,9 C 13,3 C 18,3 C 94 % 1012,0 hPa 0,4 l/m 0,00 h 0,23 h 36 W/m 25,0 km/h (4 Bft) 98,98 %
28.09.2019 19:00 14,5 C 13,5 C 18,3 C 94 % 1012,4 hPa 0,0 l/m 0,00 h 0,00 h 7 W/m 21,7 km/h (4 Bft) 95,79 %
28.09.2019 20:00 14,6 C 13,6 C 18,3 C 94 % 1012,7 hPa 0,0 l/m 0,00 h 0,23 h 0 W/m 17,6 km/h (3 Bft) 97,46 %
28.09.2019 21:00 14,4 C 12,8 C 18,3 C 96 % 1012,7 hPa 2,0 l/m 0,00 h 0,43 h 0 W/m 12,1 km/h (2 Bft) 99,22 %
28.09.2019 22:00 14,1 C 12,8 C 18,3 C 96 % 1012,7 hPa 0,0 l/m 0,00 h 0,00 h 0 W/m 16,3 km/h (3 Bft) 96,37 %
28.09.2019 23:00 13,9 C 12,8 C 18,3 C 96 % 1012,6 hPa 0,0 l/m 0,00 h 0,00 h 0 W/m 11,4 km/h (2 Bft) 96,72 %
29.09.2019 00:00 13,7 C 12,8 C 18,3 C 96 % 1012,1 hPa 0,0 l/m 0,00 h 0,00 h 0 W/m 16,3 km/h (3 Bft) 99,78 %
29.09.2019 01:00 13,8 C 13,1 C 18,3 C 93 % 1011,7 hPa 0,0 l/m 0,00 h 0,00 h 0 W/m 16,0 km/h (3 Bft) 96,23 %
29.09.2019 02:00 13,9 C 13,5 C 18,3 C 90 % 1011,0 hPa 0,0 l/m 0,00 h 0,00 h 0 W/m 16,3 km/h (3 Bft) 97,10 %
29.09.2019 03:00 14,2 C 13,4 C 18,3 C 89 % 1010,1 hPa 0,0 l/m 0,00 h 0,00 h 0 W/m 12,0 km/h (2 Bft) 99,36 %
29.09.2019 04:00 14,2 C 13,3 C 18,3 C 90 % 1008,9 hPa 0,0 l/m 0,00 h 0,00 h 0 W/m 12,1 km/h (2 Bft) 95,78 %
29.09.2019 05:00 14,2 C 13,7 C 18,3 C 91 % 1007,6 hPa 0,0 l/m 0,00 h 0,00 h 0 W/m 13,1 km/h (3 Bft) 97,51 %
29.09.2019 06:00 14,4 C 13,9 C 18,3 C 89 % 1006,4 hPa 0,0 l/m 0,00 h 0,00 h 0 W/m 14,1 km/h (3 Bft) 98,72 %
29.09.2019 07:00 14,5 C 14,2 C 18,3 C 88 % 1005,4 hPa 0,0 l/m 0,00 h 0,00 h 6 W/m 17,6 km/h (3 Bft) 97,00 %
29.09.2019 08:00 15,1 C 14,8 C 18,3 C 84 % 1004,6 hPa 0,0 l/m 0,00 h 0,00 h 27 W/m 17,4 km/h (3 Bft) 97,37 %
29.09.2019 09:00 15,5 C 15,0 C 18,3 C 82 % 1004,2 hPa 0,0 l/m 0,00 h 0,03 h 31 W/m 19,8 km/h (4 Bft) 96,94 %
29.09.2019 10:00 15,4 C 12,7 C 18,3 C 84 % 1003,4 hPa 0,6 l/m 0,00 h 0,83 h 48 W/m 16,7 km/h (3 Bft) 98,43 %
29.09.2019 11:00 14,8 C 12,2 C 18,3 C 89 % 1003,3 hPa 0,8 l/m 0,00 h 0,90 h 29 W/m 17,7 km/h (3 Bft) 97,58 %
29.09.2019 12:00 14,9 C 13,7 C 18,3 C 89 % 1002,5 hPa 0,0 l/m 0,00 h 0,17 h 110 W/m 25,7 km/h (4 Bft) 96,46 %
29.09.2019 13:00 15,2 C 13,3 C 18,3 C 92 % 1001,9 hPa 0,4 l/m 0,00 h 0,63 h 72 W/m 28,9 km/h (5 Bft) 97,79 %
29.09.2019 14:00 15,1 C 14,1 C 18,3 C 96 % 1001,0 hPa 0,0 l/m 0,00 h 0,33 h 81 W/m 27,3 km/h (4 Bft) 98,08 %
29.09.2019 15:00 16,2 C 15,4 C 18,3 C 91 % 1000,2 hPa 0,2 l/m 0,00 h 0,00 h 72 W/m 32,1 km/h (5 Bft) 96,87 %
29.09.2019 16:00 16,9 C 16,3 C 18,3 C 88 % 999,3 hPa 0,0 l/m 0,00 h 0,30 h 37 W/m 29,9 km/h (5 Bft) 98,29 %
29.09.2019 17:00 17,1 C 16,1 C 18,3 C 89 % 998,2 hPa 0,0 l/m 0,00 h 0,73 h 28 W/m 30,8 km/h (5 Bft) 96,87 %
29.09.2019 18:00 17,6 C 17,1 C 18,3 C 88 % 997,3 hPa 0,0 l/m 0,00 h 0,00 h 15 W/m 31,1 km/h (5 Bft) 97,71 %
29.09.2019 19:00 17,8 C 17,0 C 18,3 C 87 % 996,3 hPa 0,0 l/m 0,00 h 0,17 h 0 W/m 30,3 km/h (5 Bft) 97,01 %
29.09.2019 20:00 17,2 C 15,0 C 18,3 C 92 % 995,8 hPa 3,2 l/m 0,00 h 1,00 h 0 W/m 19,8 km/h (4 Bft) 97,36 %
29.09.2019 21:00 16,5 C 15,0 C 18,3 C 96 % 995,6 hPa 4,0 l/m 0,00 h 0,80 h 0 W/m 10,9 km/h (2 Bft) 98,86 %
29.09.2019 22:00 15,7 C 14,3 C 18,3 C 97 % 996,2 hPa 0,0 l/m 0,00 h 0,70 h 0 W/m 20,8 km/h (4 Bft) 96,01 %
29.09.2019 23:00 15,1 C 13,9 C 18,3 C 97 % 996,6 hPa 0,4 l/m 0,00 h 0,60 h 0 W/m 23,3 km/h (4 Bft) 97,51 %
Min-Datum _ 24.09.19 24.09.19 24.09.19 27.09.19 29.09.19 - - - - 23.09.19 28.09.19
_ Min-Zeit 06:56 06:40 05:54 16:50 21:10 - - - - 00:54 05:42
Minimum _ 12,8 C 11,7 C 11,7 C 60 % 995,3 hPa - - - - 0,0 km/h (0 Bft) 41,18 %
Max-Datum _ 23.09.19 23.09.19 25.09.19 23.09.19 23.09.19 29.09.19 25.09.19 23.09.19 23.09.19 29.09.19 23.09.19
_ Max-Zeit 16:30 14:32 13:58 11:00 20:38 21:28 12:08 00:08 14:16 13:02 00:54
Maximum _ 21,5 C 26,1 C 20,6 C 99 % 1015,9 hPa 4,0 l/m 0,07 h 0,07 h 834 W/m 61,2 km/h
S-SO (7 Bft)
100,00 %
Durchschnitt _ 15,9 C 15,3 C 15,9 C 89 % 1009,0 hPa #31,4 l/m #13:46 h #27:13 h 133 W/m 14,5 km/h (3 Bft) 97,44 %
© 2019 W. Hausmann